createdAt,value
2022-07-30T00:01:42.818Z,23.24
2022-07-30T00:04:13.108Z,23.22
2022-07-30T00:06:42.705Z,23.17
2022-07-30T00:09:13.036Z,23.13
2022-07-30T00:11:42.645Z,23.11
2022-07-30T00:14:13.274Z,23.07
2022-07-30T00:16:43.623Z,23.03
2022-07-30T00:19:13.145Z,23.01
2022-07-30T00:21:42.524Z,22.93
2022-07-30T00:24:12.730Z,22.83
2022-07-30T00:26:42.547Z,22.73
2022-07-30T00:29:11.679Z,22.63
2022-07-30T00:31:41.623Z,22.56
2022-07-30T00:34:12.968Z,22.49
2022-07-30T00:36:42.027Z,22.39
2022-07-30T00:39:13.702Z,22.32
2022-07-30T00:42:02.318Z,22.26
2022-07-30T00:44:32.405Z,22.26
2022-07-30T00:47:03.047Z,22.23
2022-07-30T00:49:34.543Z,22.17
2022-07-30T00:52:06.076Z,22.12
2022-07-30T00:54:35.465Z,22.06
2022-07-30T00:57:04.908Z,22.03
2022-07-30T00:59:34.378Z,22.01
2022-07-30T01:02:06.430Z,21.99
2022-07-30T01:04:37.171Z,21.98
2022-07-30T01:07:06.189Z,21.97
2022-07-30T01:09:36.637Z,21.95
2022-07-30T01:12:07.116Z,21.91
2022-07-30T01:14:37.215Z,21.83
2022-07-30T01:17:07.142Z,21.76
2022-07-30T01:19:52.604Z,21.71
2022-07-30T01:22:55.427Z,21.66
2022-07-30T01:25:53.044Z,21.62
2022-07-30T01:28:36.066Z,21.60
2022-07-30T01:31:07.317Z,21.56
2022-07-30T01:33:42.005Z,21.49
2022-07-30T01:36:14.749Z,21.44
2022-07-30T01:38:46.415Z,21.39
2022-07-30T01:41:18.196Z,21.35
2022-07-30T01:43:48.638Z,21.32
2022-07-30T01:46:18.466Z,21.23
2022-07-30T01:48:50.629Z,21.21
2022-07-30T01:51:20.581Z,21.18
2022-07-30T01:53:53.489Z,21.16
2022-07-30T01:56:25.175Z,21.15
2022-07-30T01:58:56.612Z,21.15
2022-07-30T02:01:29.747Z,21.10
2022-07-30T02:04:02.568Z,21.06
2022-07-30T02:06:37.433Z,20.98
2022-07-30T02:09:11.101Z,20.95
2022-07-30T02:12:03.986Z,20.93
2022-07-30T02:14:45.994Z,20.94
2022-07-30T02:17:21.428Z,20.94
2022-07-30T02:19:54.826Z,20.90
2022-07-30T02:22:26.945Z,20.92
2022-07-30T02:24:57.099Z,20.93
2022-07-30T02:27:32.705Z,20.92
2022-07-30T02:30:03.383Z,20.94
2022-07-30T02:32:37.689Z,20.96
2022-07-30T02:35:18.499Z,20.98
2022-07-30T02:37:50.686Z,20.99
2022-07-30T02:40:21.077Z,20.99
2022-07-30T02:42:52.680Z,21.03
2022-07-30T02:45:25.184Z,20.98
2022-07-30T02:48:01.275Z,20.97
2022-07-30T02:50:32.776Z,20.99
2022-07-30T02:53:03.156Z,20.97
2022-07-30T02:55:34.925Z,20.96
2022-07-30T02:58:07.341Z,20.95
2022-07-30T03:00:36.868Z,20.94
2022-07-30T03:03:08.457Z,20.93
2022-07-30T03:05:41.854Z,20.93
2022-07-30T03:08:11.600Z,20.94
2022-07-30T03:10:41.251Z,20.98
2022-07-30T03:13:12.892Z,21.00
2022-07-30T03:15:46.446Z,21.00
2022-07-30T03:18:17.168Z,21.05
2022-07-30T03:20:51.763Z,21.08
2022-07-30T03:23:21.817Z,21.12
2022-07-30T03:26:01.551Z,21.16
2022-07-30T03:28:35.128Z,21.21
2022-07-30T03:31:05.247Z,21.24
2022-07-30T03:33:38.687Z,21.27
2022-07-30T03:36:08.411Z,21.31
2022-07-30T03:38:38.870Z,21.38
2022-07-30T03:41:11.086Z,21.42
2022-07-30T03:43:43.381Z,21.45
2022-07-30T03:46:13.516Z,21.51
2022-07-30T03:48:45.840Z,21.55
2022-07-30T03:51:18.861Z,21.60
2022-07-30T03:53:51.662Z,21.65
2022-07-30T03:56:41.107Z,21.70
2022-07-30T03:59:17.449Z,21.74
2022-07-30T04:01:46.748Z,21.79
2022-07-30T04:04:21.188Z,21.85
2022-07-30T04:06:52.068Z,21.89
2022-07-30T04:09:21.419Z,21.95
2022-07-30T04:11:52.061Z,22.01
2022-07-30T04:14:25.274Z,22.04
2022-07-30T04:17:05.461Z,22.05
2022-07-30T04:19:40.390Z,22.05
2022-07-30T04:22:09.976Z,22.05
2022-07-30T04:24:41.219Z,22.09
2022-07-30T04:27:11.177Z,22.14
2022-07-30T04:29:43.252Z,22.18
2022-07-30T04:32:12.956Z,22.20
2022-07-30T04:35:00.704Z,22.24
2022-07-30T04:37:41.650Z,22.26
2022-07-30T04:40:11.727Z,22.31
2022-07-30T04:42:42.236Z,22.37
2022-07-30T04:45:13.891Z,22.42
2022-07-30T04:48:00.705Z,22.45
2022-07-30T04:50:51.360Z,22.52
2022-07-30T04:53:20.732Z,22.55
2022-07-30T04:55:56.503Z,22.57
2022-07-30T04:58:29.719Z,22.61
2022-07-30T05:01:01.142Z,22.68
2022-07-30T05:03:32.271Z,22.73
2022-07-30T05:06:02.074Z,22.74
2022-07-30T05:08:33.110Z,22.73
2022-07-30T05:11:06.587Z,22.77
2022-07-30T05:13:38.286Z,22.77
2022-07-30T05:16:11.731Z,22.80
2022-07-30T05:18:42.314Z,22.83
2022-07-30T05:21:13.613Z,22.88
2022-07-30T05:23:50.608Z,22.94
2022-07-30T05:26:22.024Z,23.01
2022-07-30T05:28:57.015Z,23.04
2022-07-30T05:31:47.482Z,23.09
2022-07-30T05:34:19.779Z,23.15
2022-07-30T05:36:49.868Z,23.19
2022-07-30T05:39:19.127Z,23.23
2022-07-30T05:41:59.622Z,23.26
2022-07-30T05:44:31.252Z,23.30
2022-07-30T05:47:02.519Z,23.32
2022-07-30T05:49:34.132Z,23.35
2022-07-30T05:52:06.481Z,23.40
2022-07-30T05:54:36.983Z,23.46
2022-07-30T05:57:10.885Z,23.50
2022-07-30T05:59:42.057Z,23.54
2022-07-30T06:02:12.887Z,23.59
2022-07-30T06:04:53.220Z,23.67
2022-07-30T06:07:23.122Z,23.79
2022-07-30T06:09:54.056Z,23.91
2022-07-30T06:12:24.013Z,24.00
2022-07-30T06:14:53.180Z,24.12
2022-07-30T06:17:27.313Z,24.18
2022-07-30T06:20:13.196Z,24.27
2022-07-30T06:22:47.909Z,24.53
2022-07-30T06:25:19.726Z,24.85
2022-07-30T06:27:50.299Z,25.25
2022-07-30T06:30:20.316Z,25.62
2022-07-30T06:32:52.651Z,25.97
2022-07-30T06:35:22.543Z,26.15
2022-07-30T06:38:00.566Z,26.23
2022-07-30T06:40:26.542Z,26.30
2022-07-30T06:43:05.469Z,26.32
2022-07-30T06:45:39.455Z,26.33
2022-07-30T06:48:21.900Z,26.34
2022-07-30T06:50:52.344Z,26.28
2022-07-30T06:53:22.486Z,26.37
2022-07-30T06:55:58.422Z,26.51
2022-07-30T06:58:29.562Z,26.72
2022-07-30T07:01:00.801Z,26.94
2022-07-30T07:03:39.962Z,27.25
2022-07-30T07:06:05.618Z,27.47
2022-07-30T07:08:38.042Z,27.68
2022-07-30T07:11:08.541Z,27.93
2022-07-30T07:13:41.190Z,28.35
2022-07-30T07:16:11.703Z,28.53
2022-07-30T07:18:44.820Z,28.77
2022-07-30T07:21:15.311Z,28.77
2022-07-30T07:23:45.714Z,29.05
2022-07-30T07:26:17.663Z,29.28
2022-07-30T07:28:48.887Z,29.51
2022-07-30T07:32:02.820Z,29.79
2022-07-30T07:33:54.835Z,30.02
2022-07-30T07:36:25.542Z,30.22
2022-07-30T07:38:55.170Z,30.28
2022-07-30T07:41:26.116Z,30.39
2022-07-30T07:43:56.615Z,30.51
2022-07-30T07:46:33.771Z,30.72
2022-07-30T07:49:02.658Z,30.94
2022-07-30T07:51:47.283Z,31.16
2022-07-30T07:54:20.886Z,31.19
2022-07-30T07:56:39.481Z,31.19
2022-07-30T07:59:10.435Z,31.31
2022-07-30T08:01:42.719Z,31.21
2022-07-30T08:04:15.062Z,30.99
2022-07-30T08:07:05.779Z,31.05
2022-07-30T08:09:44.737Z,31.21
2022-07-30T08:12:19.068Z,31.31
2022-07-30T08:14:54.990Z,31.44
2022-07-30T08:17:45.979Z,31.64
2022-07-30T08:20:22.643Z,31.69
2022-07-30T08:22:55.382Z,31.73
2022-07-30T08:25:29.222Z,31.87
2022-07-30T08:28:02.470Z,32.00
2022-07-30T08:33:06.130Z,32.33
2022-07-30T08:35:36.656Z,32.33
2022-07-30T08:38:10.578Z,32.34
2022-07-30T08:40:43.762Z,32.45
2022-07-30T08:43:17.429Z,32.68
2022-07-30T08:45:47.818Z,32.80
2022-07-30T08:48:26.154Z,32.87
2022-07-30T08:50:56.423Z,32.66
2022-07-30T08:53:28.174Z,32.56
2022-07-30T08:55:59.491Z,32.55
2022-07-30T08:58:35.297Z,32.54
2022-07-30T09:01:09.222Z,32.61
2022-07-30T09:03:44.388Z,32.68
2022-07-30T09:06:13.257Z,32.55
2022-07-30T09:08:42.994Z,32.58
2022-07-30T09:11:13.465Z,32.61
2022-07-30T09:13:42.825Z,32.65
2022-07-30T09:16:24.072Z,32.68
2022-07-30T09:18:54.036Z,32.43
2022-07-30T09:21:28.634Z,32.08
2022-07-30T09:24:11.701Z,31.89
2022-07-30T09:27:05.957Z,31.88
2022-07-30T09:29:41.084Z,31.84
2022-07-30T09:32:30.559Z,31.79
2022-07-30T09:35:16.299Z,31.72
2022-07-30T09:38:06.663Z,31.58
2022-07-30T09:40:57.537Z,31.40
2022-07-30T09:43:50.182Z,31.36
2022-07-30T09:46:51.728Z,31.32
2022-07-30T09:49:34.254Z,31.30
2022-07-30T09:52:04.666Z,31.23
2022-07-30T09:54:51.053Z,31.17
2022-07-30T09:57:27.606Z,31.10
2022-07-30T09:59:57.463Z,31.07
2022-07-30T10:02:33.185Z,31.04
2022-07-30T10:05:22.051Z,30.98
2022-07-30T10:08:01.764Z,30.88
2022-07-30T10:10:33.760Z,30.86
2022-07-30T10:13:08.057Z,30.82
2022-07-30T10:15:38.128Z,30.76
2022-07-30T10:18:08.490Z,30.63
2022-07-30T10:20:53.224Z,30.53
2022-07-30T10:23:44.183Z,30.47
2022-07-30T10:26:22.185Z,30.46
2022-07-30T10:29:13.180Z,30.46
2022-07-30T10:31:54.233Z,30.47
2022-07-30T10:34:23.723Z,30.46
2022-07-30T10:37:00.893Z,30.46
2022-07-30T10:39:36.777Z,30.43
2022-07-30T10:42:38.243Z,30.42
2022-07-30T10:45:19.783Z,30.38
2022-07-30T10:47:53.258Z,30.29
2022-07-30T10:50:26.265Z,30.25
2022-07-30T10:53:00.980Z,30.22
2022-07-30T10:55:38.990Z,30.29
2022-07-30T10:58:12.354Z,30.34
2022-07-30T11:01:00.790Z,30.41
2022-07-30T11:03:41.432Z,30.44
2022-07-30T11:06:24.763Z,30.42
2022-07-30T11:08:57.227Z,30.39
2022-07-30T11:12:01.367Z,30.41
2022-07-30T11:14:04.438Z,30.35
2022-07-30T11:16:42.258Z,30.23
2022-07-30T11:19:56.432Z,30.18
2022-07-30T11:21:49.394Z,30.23
2022-07-30T11:24:45.805Z,30.27
2022-07-30T11:27:41.439Z,30.32
2022-07-30T11:30:24.376Z,30.27
2022-07-30T11:33:07.686Z,30.18
2022-07-30T11:35:38.134Z,30.18
2022-07-30T11:38:14.019Z,30.20
2022-07-30T11:40:51.588Z,30.23
2022-07-30T11:43:35.677Z,30.24
2022-07-30T11:46:10.244Z,30.26
2022-07-30T11:49:03.624Z,30.28
2022-07-30T11:51:42.834Z,30.27
2022-07-30T11:54:12.734Z,30.24
2022-07-30T11:56:54.442Z,30.23
2022-07-30T11:59:24.429Z,30.24
2022-07-30T12:01:56.083Z,30.18
2022-07-30T12:04:25.928Z,30.18
2022-07-30T12:06:55.539Z,30.24
2022-07-30T12:09:29.684Z,30.25
2022-07-30T12:12:00.954Z,30.24
2022-07-30T12:14:39.648Z,30.22
2022-07-30T12:17:14.901Z,30.16
2022-07-30T12:19:48.318Z,30.10
2022-07-30T12:22:19.808Z,30.07
2022-07-30T12:24:50.003Z,30.04
2022-07-30T12:27:19.449Z,30.00
2022-07-30T12:29:49.075Z,29.98
2022-07-30T12:32:18.762Z,30.01
2022-07-30T12:34:58.128Z,30.04
2022-07-30T12:37:27.108Z,30.00
2022-07-30T12:40:15.351Z,29.94
2022-07-30T12:42:53.695Z,29.87
2022-07-30T12:45:51.775Z,29.89
2022-07-30T12:48:04.240Z,29.89
2022-07-30T12:50:33.751Z,29.92
2022-07-30T12:53:06.453Z,29.87
2022-07-30T12:55:37.319Z,29.84
2022-07-30T12:58:08.986Z,29.83
2022-07-30T13:00:50.870Z,29.87
2022-07-30T13:03:25.915Z,29.90
2022-07-30T13:05:56.101Z,29.89
2022-07-30T13:08:46.812Z,29.92
2022-07-30T13:11:18.562Z,29.96
2022-07-30T13:13:49.230Z,29.98
2022-07-30T13:16:19.109Z,30.01
2022-07-30T13:18:50.378Z,30.02
2022-07-30T13:21:21.168Z,30.04
2022-07-30T13:23:52.148Z,30.05
2022-07-30T13:26:24.506Z,30.02
2022-07-30T13:28:58.697Z,30.04
2022-07-30T13:31:26.746Z,30.01
2022-07-30T13:33:56.632Z,30.02
2022-07-30T13:36:27.801Z,29.98
2022-07-30T13:38:57.336Z,29.98
2022-07-30T13:41:27.271Z,29.94
2022-07-30T13:43:58.163Z,29.94
2022-07-30T13:46:28.024Z,29.91
2022-07-30T13:49:00.476Z,29.88
2022-07-30T13:51:30.315Z,29.84
2022-07-30T13:53:59.438Z,29.82
2022-07-30T13:56:28.720Z,29.77
2022-07-30T13:58:58.727Z,29.71
2022-07-30T14:01:28.382Z,29.66
2022-07-30T14:03:57.443Z,29.63
2022-07-30T14:06:28.509Z,29.65
2022-07-30T14:08:59.915Z,29.67
2022-07-30T14:11:31.633Z,29.69
2022-07-30T14:14:00.729Z,29.71
2022-07-30T14:16:46.170Z,29.72
2022-07-30T14:19:01.686Z,29.76
2022-07-30T14:21:32.756Z,29.78
2022-07-30T14:24:04.708Z,29.79
2022-07-30T14:26:37.629Z,29.76
2022-07-30T14:29:06.863Z,29.75
2022-07-30T14:31:36.761Z,29.75
2022-07-30T14:34:07.259Z,29.72
2022-07-30T14:36:37.895Z,29.70
2022-07-30T14:39:07.428Z,29.69
2022-07-30T14:41:38.924Z,29.63
2022-07-30T14:44:09.594Z,29.63
2022-07-30T14:47:01.942Z,29.61
2022-07-30T14:49:13.004Z,29.63
2022-07-30T14:51:44.196Z,29.60
2022-07-30T14:54:14.994Z,29.58
2022-07-30T14:56:46.576Z,29.64
2022-07-30T14:59:19.572Z,29.70
2022-07-30T15:01:49.546Z,29.70
2022-07-30T15:04:18.782Z,29.75
2022-07-30T15:06:48.208Z,29.76
2022-07-30T15:09:19.813Z,29.76
2022-07-30T15:12:08.561Z,29.73
2022-07-30T15:14:20.585Z,29.73
2022-07-30T15:16:52.121Z,29.72
2022-07-30T15:19:22.991Z,29.70
2022-07-30T15:21:54.079Z,29.62
2022-07-30T15:24:26.298Z,29.62
2022-07-30T15:26:56.841Z,29.61
2022-07-30T15:29:30.279Z,29.58
2022-07-30T15:32:01.792Z,29.55
2022-07-30T15:34:35.347Z,29.49
2022-07-30T15:37:06.218Z,29.43
2022-07-30T15:39:36.939Z,29.43
2022-07-30T15:42:07.468Z,29.34
2022-07-30T15:44:42.296Z,29.34
2022-07-30T15:47:12.992Z,29.31
2022-07-30T15:49:42.093Z,29.28
2022-07-30T15:52:11.664Z,29.23
2022-07-30T15:54:42.441Z,29.19
2022-07-30T15:57:13.359Z,29.15
2022-07-30T15:59:42.950Z,29.11
2022-07-30T16:02:13.381Z,29.06
2022-07-30T16:04:42.484Z,29.03
2022-07-30T16:07:13.376Z,29.02
2022-07-30T16:09:42.508Z,29.02
2022-07-30T16:12:11.782Z,29.01
2022-07-30T16:14:43.109Z,28.98
2022-07-30T16:17:15.061Z,28.91
2022-07-30T16:19:44.834Z,28.85
2022-07-30T16:22:24.100Z,28.75
2022-07-30T16:24:49.113Z,28.75
2022-07-30T16:27:21.401Z,28.72
2022-07-30T16:29:53.004Z,28.70
2022-07-30T16:32:23.758Z,28.69
2022-07-30T16:34:52.988Z,28.65
2022-07-30T16:37:23.946Z,28.58
2022-07-30T16:39:53.438Z,28.51
2022-07-30T16:42:22.860Z,28.47
2022-07-30T16:44:53.748Z,28.45
2022-07-30T16:47:24.381Z,28.42
2022-07-30T16:49:57.035Z,28.41
2022-07-30T16:52:27.149Z,28.37
2022-07-30T16:54:58.323Z,28.33
2022-07-30T16:57:29.934Z,28.30
2022-07-30T17:00:00.324Z,28.26
2022-07-30T17:02:31.308Z,28.23
2022-07-30T17:05:00.929Z,28.20
2022-07-30T17:07:30.076Z,28.16
2022-07-30T17:10:00.063Z,28.10
2022-07-30T17:12:31.584Z,28.07
2022-07-30T17:15:02.587Z,28.03
2022-07-30T17:17:33.077Z,27.99
2022-07-30T17:20:05.690Z,27.94
2022-07-30T17:22:42.712Z,27.88
2022-07-30T17:25:11.523Z,27.84
2022-07-30T17:27:41.548Z,27.79
2022-07-30T17:30:13.853Z,27.74
2022-07-30T17:32:44.038Z,27.70
2022-07-30T17:35:15.179Z,27.62
2022-07-30T17:37:45.134Z,27.57
2022-07-30T17:40:29.867Z,27.51
2022-07-30T17:42:48.120Z,27.46
2022-07-30T17:45:17.142Z,27.41
2022-07-30T17:47:47.416Z,27.39
2022-07-30T17:50:17.599Z,27.31
2022-07-30T17:52:48.829Z,27.25
2022-07-30T17:55:19.494Z,27.19
2022-07-30T17:57:49.150Z,27.11
2022-07-30T18:00:20.939Z,27.04
2022-07-30T18:02:51.684Z,26.96
2022-07-30T18:05:22.940Z,26.90
2022-07-30T18:07:51.951Z,26.83
2022-07-30T18:10:22.114Z,26.78
2022-07-30T18:12:53.059Z,26.76
2022-07-30T18:15:23.167Z,26.74
2022-07-30T18:17:54.632Z,26.70
2022-07-30T18:20:25.172Z,26.63
2022-07-30T18:22:55.122Z,26.59
2022-07-30T18:25:26.122Z,26.56
2022-07-30T18:27:55.999Z,26.51
2022-07-30T18:30:26.399Z,26.48
2022-07-30T18:32:57.117Z,26.41
2022-07-30T18:35:27.247Z,26.32
2022-07-30T18:37:57.330Z,26.26
2022-07-30T18:40:26.676Z,26.20
2022-07-30T18:42:56.258Z,26.17
2022-07-30T18:45:27.978Z,26.14
2022-07-30T18:47:57.889Z,26.11
2022-07-30T18:50:28.065Z,26.08
2022-07-30T18:52:57.561Z,26.06
2022-07-30T18:55:26.762Z,26.00
2022-07-30T18:57:57.516Z,25.95
2022-07-30T19:00:34.366Z,25.92
2022-07-30T19:03:00.465Z,25.88
2022-07-30T19:05:30.767Z,25.83
2022-07-30T19:08:00.607Z,25.75
2022-07-30T19:10:30.455Z,25.68
2022-07-30T19:13:00.981Z,25.64
2022-07-30T19:15:30.752Z,25.63
2022-07-30T19:18:00.675Z,25.59
2022-07-30T19:20:30.677Z,25.57
2022-07-30T19:23:06.867Z,25.53
2022-07-30T19:25:37.139Z,25.47
2022-07-30T19:28:07.220Z,25.41
2022-07-30T19:30:37.352Z,25.34
2022-07-30T19:33:14.402Z,25.29
2022-07-30T19:35:39.787Z,25.27
2022-07-30T19:38:09.782Z,25.22
2022-07-30T19:40:42.071Z,25.19
2022-07-30T19:43:12.484Z,25.18
2022-07-30T19:45:46.677Z,25.15
2022-07-30T19:48:14.595Z,25.10
2022-07-30T19:50:43.759Z,25.02
2022-07-30T19:53:16.235Z,24.99
2022-07-30T19:55:46.219Z,24.96
2022-07-30T19:58:17.715Z,24.96
2022-07-30T20:00:49.768Z,24.92
2022-07-30T20:03:25.497Z,24.90
2022-07-30T20:05:58.523Z,24.88
2022-07-30T20:08:24.888Z,24.82
2022-07-30T20:10:57.323Z,24.80
2022-07-30T20:13:45.523Z,24.78
2022-07-30T20:15:59.849Z,24.75
2022-07-30T20:18:29.581Z,24.74
2022-07-30T20:20:59.911Z,24.69
2022-07-30T20:23:31.993Z,24.66
2022-07-30T20:26:03.921Z,24.64
2022-07-30T20:28:35.664Z,24.59
2022-07-30T20:31:05.958Z,24.52
2022-07-30T20:33:37.868Z,24.51
2022-07-30T20:36:09.635Z,24.50
2022-07-30T20:38:39.259Z,24.49
2022-07-30T20:41:11.032Z,24.46
2022-07-30T20:43:46.230Z,24.45
2022-07-30T20:46:14.817Z,24.40
2022-07-30T20:48:46.213Z,24.36
2022-07-30T20:51:15.855Z,24.34
2022-07-30T20:53:45.491Z,24.32
2022-07-30T20:56:15.032Z,24.28
2022-07-30T20:58:47.414Z,24.26
2022-07-30T21:01:18.100Z,24.23
2022-07-30T21:03:48.968Z,24.20
2022-07-30T21:06:19.402Z,24.15
2022-07-30T21:08:49.125Z,24.11
2022-07-30T21:11:19.846Z,24.07
2022-07-30T21:13:51.412Z,24.02
2022-07-30T21:16:23.530Z,23.97
2022-07-30T21:18:54.755Z,23.93
2022-07-30T21:21:29.321Z,23.90
2022-07-30T21:23:58.131Z,23.85
2022-07-30T21:26:29.051Z,23.84
2022-07-30T21:29:00.523Z,23.80
2022-07-30T21:32:00.458Z,23.78
2022-07-30T21:34:01.147Z,23.77
2022-07-30T21:36:30.207Z,23.75
2022-07-30T21:39:00.275Z,23.71
2022-07-30T21:41:39.926Z,23.70
2022-07-30T21:44:03.122Z,23.67
2022-07-30T21:46:34.254Z,23.63
2022-07-30T21:49:05.555Z,23.57
2022-07-30T21:51:37.693Z,23.54
2022-07-30T21:54:08.762Z,23.54
2022-07-30T21:56:41.536Z,23.51
2022-07-30T21:59:10.711Z,23.48
2022-07-30T22:01:47.453Z,23.45
2022-07-30T22:04:11.859Z,23.42
2022-07-30T22:06:42.452Z,23.40
2022-07-30T22:09:18.845Z,23.38
2022-07-30T22:11:49.277Z,23.35
2022-07-30T22:14:18.968Z,23.32
2022-07-30T22:16:48.635Z,23.31
2022-07-30T22:19:18.721Z,23.27
2022-07-30T22:22:01.946Z,23.24
2022-07-30T22:24:29.329Z,23.23
2022-07-30T22:26:53.821Z,23.21
2022-07-30T22:29:23.034Z,23.21
2022-07-30T22:31:52.548Z,23.21
2022-07-30T22:34:23.580Z,23.21
2022-07-30T22:36:53.356Z,23.21
2022-07-30T22:39:31.490Z,23.21
2022-07-30T22:41:56.367Z,23.18
2022-07-30T22:44:26.375Z,23.11
2022-07-30T22:46:56.154Z,23.08
2022-07-30T22:52:05.031Z,23.06
2022-07-30T22:54:27.651Z,23.05
2022-07-30T22:56:57.230Z,23.04
2022-07-30T23:00:00.022Z,23.01
2022-07-30T23:02:01.387Z,22.97
2022-07-30T23:04:31.639Z,22.94
2022-07-30T23:07:02.651Z,22.92
2022-07-30T23:09:49.468Z,22.91
2022-07-30T23:12:05.843Z,22.88
2022-07-30T23:12:34.234Z,23.06
2022-07-30T23:14:37.969Z,22.86
2022-07-30T23:17:09.636Z,22.85
2022-07-30T23:19:39.281Z,22.82
2022-07-30T23:22:10.023Z,22.81
2022-07-30T23:24:39.880Z,22.79
2022-07-30T23:27:09.622Z,22.80
2022-07-30T23:29:38.558Z,22.78
2022-07-30T23:32:09.014Z,22.78
2022-07-30T23:34:38.695Z,22.80
2022-07-30T23:37:11.756Z,22.79
2022-07-30T23:39:39.535Z,22.73
2022-07-30T23:42:09.458Z,22.69
2022-07-30T23:44:38.420Z,22.65
2022-07-30T23:47:08.260Z,22.62
2022-07-30T23:49:37.294Z,22.62
2022-07-30T23:52:07.235Z,22.60
2022-07-30T23:54:37.162Z,22.60
2022-07-30T23:57:07.129Z,22.57
2022-07-30T23:59:40.754Z,22.54
